Time;durP1;ratioP1;P1;durP2;ratioP2;P2;SDS_P1;SDS_P2;PMS_P1;PMS_P2;Temp;Humidity;BMP_temperature;BMP_pressure;BME280_temperature;BME280_humidity;BME280_pressure;Samples;Min_cycle;Max_cycle;Signal;HPM_P1;HPM_P2
2022/03/21 00:02:06;;;;;;;18.73;11.10;;;;;;;;;;5010827;28;20025;-72
2022/03/21 00:04:31;;;;;;;17.63;11.52;;;;;;;;;;5010281;28;20459;-72
2022/03/21 00:06:57;;;;;;;22.92;11.52;;;;;;;;;;5010311;28;20491;-72
2022/03/21 00:09:22;;;;;;;22.90;12.25;;;;;;;;;;5010426;28;20379;-72
2022/03/21 00:11:50;;;;;;;26.20;12.93;;;;;;;;;;5010721;28;20173;-72
2022/03/21 00:14:16;;;;;;;22.55;12.90;;;;;;;;;;5010038;28;20029;-72
2022/03/21 00:16:41;;;;;;;24.13;13.68;;;;;;;;;;5010684;28;20387;-72
2022/03/21 00:19:07;;;;;;;22.50;13.85;;;;;;;;;;5010159;28;20033;-71
2022/03/21 00:21:34;;;;;;;25.83;14.15;;;;;;;;;;5010648;28;20165;-72
2022/03/21 00:24:00;;;;;;;24.33;13.63;;;;;;;;;;5010091;28;20037;-72
2022/03/21 00:26:25;;;;;;;24.20;13.00;;;;;;;;;;5010290;28;20030;-72
2022/03/21 00:28:51;;;;;;;21.90;12.73;;;;;;;;;;5010203;28;20057;-72
2022/03/21 00:31:16;;;;;;;25.83;13.52;;;;;;;;;;5010478;28;20399;-72
2022/03/21 00:33:42;;;;;;;22.80;12.55;;;;;;;;;;5010390;28;20144;-72
2022/03/21 00:36:08;;;;;;;22.48;12.45;;;;;;;;;;5010468;28;20434;-72
2022/03/21 00:38:37;;;;;;;19.15;11.63;;;;;;;;;;5009970;28;20212;-72
2022/03/21 00:41:04;;;;;;;18.83;11.27;;;;;;;;;;5010167;28;20029;-72
2022/03/21 00:43:30;;;;;;;24.60;12.63;;;;;;;;;;5010009;28;20033;-72
2022/03/21 00:45:57;;;;;;;19.67;10.82;;;;;;;;;;5009954;28;20026;-72
2022/03/21 00:48:24;;;;;;;21.13;11.88;;;;;;;;;;5009676;28;20033;-72
2022/03/21 00:50:50;;;;;;;20.23;12.00;;;;;;;;;;5010051;28;20399;-72
2022/03/21 00:53:16;;;;;;;22.52;12.10;;;;;;;;;;5025637;28;20033;-72
2022/03/21 00:55:42;;;;;;;21.63;12.38;;;;;;;;;;5030191;28;20021;-72
2022/03/21 00:58:08;;;;;;;22.42;12.55;;;;;;;;;;5027288;28;20494;-72
2022/03/21 01:00:33;;;;;;;20.77;11.60;;;;;;;;;;5010202;28;20033;-72
2022/03/21 01:03:00;;;;;;;21.25;11.88;;;;;;;;;;5009593;28;20033;-72
2022/03/21 01:05:26;;;;;;;22.45;11.90;;;;;;;;;;5010402;28;20072;-72
2022/03/21 01:07:52;;;;;;;23.58;11.07;;;;;;;;;;5012570;28;20061;-72
2022/03/21 01:10:19;;;;;;;21.95;11.88;;;;;;;;;;5013822;28;20022;-72
2022/03/21 01:12:45;;;;;;;21.50;12.82;;;;;;;;;;5013616;28;20037;-72
2022/03/21 01:15:15;;;;;;;21.42;13.00;;;;;;;;;;5013582;28;20058;-72
2022/03/21 01:17:42;;;;;;;21.10;12.00;;;;;;;;;;5012231;28;20026;-71
2022/03/21 01:20:09;;;;;;;21.35;12.10;;;;;;;;;;5013638;28;20088;-72
2022/03/21 01:22:34;;;;;;;22.15;12.32;;;;;;;;;;5013220;28;20118;-71
2022/03/21 01:24:59;;;;;;;24.63;13.25;;;;;;;;;;5012088;28;20191;-71
2022/03/21 01:27:25;;;;;;;21.20;12.57;;;;;;;;;;5013291;28;20037;-71
2022/03/21 01:29:50;;;;;;;20.85;12.52;;;;;;;;;;5013200;28;20083;-72
2022/03/21 01:32:16;;;;;;;23.42;13.57;;;;;;;;;;5013809;28;20045;-72
2022/03/21 01:34:41;;;;;;;24.95;13.77;;;;;;;;;;5012066;28;20331;-72
2022/03/21 01:37:06;;;;;;;29.08;13.73;;;;;;;;;;5013373;28;20040;-72
2022/03/21 01:39:32;;;;;;;22.73;12.13;;;;;;;;;;5012727;28;20499;-72
2022/03/21 01:41:58;;;;;;;20.73;11.93;;;;;;;;;;5013510;28;20507;-71
2022/03/21 01:44:23;;;;;;;20.83;11.73;;;;;;;;;;5012957;28;20029;-72
2022/03/21 01:46:49;;;;;;;20.75;11.50;;;;;;;;;;5013380;28;20475;-73
2022/03/21 01:49:14;;;;;;;24.05;12.88;;;;;;;;;;5013180;28;20117;-72
2022/03/21 01:51:44;;;;;;;21.27;11.95;;;;;;;;;;5013513;28;20527;-71
2022/03/21 01:56:54;;;;;;;20.50;11.70;;;;;;;;;;4993741;28;20045;-72
2022/03/21 01:59:20;;;;;;;21.38;11.60;;;;;;;;;;5003680;28;20296;-72
2022/03/21 02:01:46;;;;;;;22.05;12.18;;;;;;;;;;5011519;28;20121;-72
2022/03/21 02:04:12;;;;;;;26.52;13.20;;;;;;;;;;5008583;28;20104;-72
2022/03/21 02:06:38;;;;;;;27.42;13.10;;;;;;;;;;5012593;28;20616;-72
2022/03/21 02:09:07;;;;;;;26.13;13.15;;;;;;;;;;5012652;28;20107;-72
2022/03/21 02:11:33;;;;;;;30.38;14.27;;;;;;;;;;5012262;28;20030;-72
2022/03/21 02:14:00;;;;;;;23.80;12.25;;;;;;;;;;5012571;28;20456;-72
2022/03/21 02:16:27;;;;;;;26.83;12.73;;;;;;;;;;5011661;28;20083;-72
2022/03/21 02:18:53;;;;;;;22.08;11.50;;;;;;;;;;5011696;28;20434;-72
2022/03/21 02:22:00;;;;;;;18.90;11.02;;;;;;;;;;5012571;28;20028;-72
2022/03/21 02:24:34;;;;;;;18.40;10.38;;;;;;;;;;5033736;23;20663;-72
2022/03/21 02:27:01;;;;;;;18.60;11.02;;;;;;;;;;5012509;28;20037;-71
2022/03/21 02:29:27;;;;;;;18.33;11.32;;;;;;;;;;5011434;28;20029;-71
2022/03/21 02:31:55;;;;;;;19.00;11.05;;;;;;;;;;5012386;28;20080;-71
2022/03/21 02:34:23;;;;;;;20.30;11.95;;;;;;;;;;5012219;28;20053;-72
2022/03/21 02:36:51;;;;;;;22.73;11.43;;;;;;;;;;5012131;28;20432;-71
2022/03/21 02:39:18;;;;;;;23.48;12.75;;;;;;;;;;5012361;28;20100;-71
2022/03/21 02:41:43;;;;;;;19.15;11.45;;;;;;;;;;4992775;28;20026;-71
2022/03/21 02:44:08;;;;;;;24.55;12.35;;;;;;;;;;4992716;28;20034;-71
2022/03/21 02:46:36;;;;;;;19.92;12.35;;;;;;;;;;5004415;28;20041;-71
2022/03/21 02:49:01;;;;;;;21.00;12.20;;;;;;;;;;5011402;28;20102;-71
2022/03/21 02:51:28;;;;;;;22.13;12.32;;;;;;;;;;5011818;28;20116;-69
2022/03/21 02:53:53;;;;;;;22.08;12.18;;;;;;;;;;5012181;28;20025;-71
2022/03/21 02:56:22;;;;;;;21.83;12.75;;;;;;;;;;5012188;28;20022;-70
2022/03/21 02:58:48;;;;;;;23.70;13.05;;;;;;;;;;5011428;28;20029;-71
2022/03/21 03:01:16;;;;;;;21.23;12.48;;;;;;;;;;5011577;28;20037;-71
2022/03/21 03:03:42;;;;;;;23.02;12.98;;;;;;;;;;5011092;28;20386;-71
2022/03/21 03:06:08;;;;;;;25.60;12.55;;;;;;;;;;5011522;28;20031;-71
2022/03/21 03:08:35;;;;;;;21.40;12.40;;;;;;;;;;5014841;28;20034;-71
2022/03/21 03:11:01;;;;;;;21.33;11.68;;;;;;;;;;5010620;28;20499;-71
2022/03/21 03:13:27;;;;;;;18.00;11.30;;;;;;;;;;5009810;28;20040;-70
2022/03/21 03:15:52;;;;;;;21.65;11.77;;;;;;;;;;5010195;28;20208;-71
2022/03/21 03:18:18;;;;;;;21.98;11.93;;;;;;;;;;5009065;28;20057;-70
2022/03/21 03:20:52;;;;;;;21.42;11.85;;;;;;;;;;5009242;28;20036;-71
2022/03/21 03:23:19;;;;;;;18.10;11.55;;;;;;;;;;5016985;28;20033;-71
2022/03/21 03:25:46;;;;;;;23.50;12.52;;;;;;;;;;5010056;28;20026;-71
2022/03/21 03:28:12;;;;;;;24.60;12.20;;;;;;;;;;5010580;28;20113;-71
2022/03/21 03:30:38;;;;;;;21.35;12.95;;;;;;;;;;5011209;28;20030;-71
2022/03/21 03:33:03;;;;;;;21.95;12.82;;;;;;;;;;4991629;28;20018;-71
2022/03/21 03:35:28;;;;;;;23.30;13.25;;;;;;;;;;4993339;28;20041;-70
2022/03/21 03:37:54;;;;;;;19.30;11.50;;;;;;;;;;5011031;28;20033;-70
2022/03/21 03:40:21;;;;;;;20.27;11.73;;;;;;;;;;5011072;28;20104;-71
2022/03/21 03:42:46;;;;;;;25.10;13.27;;;;;;;;;;5011077;28;20253;-71
2022/03/21 03:45:13;;;;;;;20.40;12.02;;;;;;;;;;5023211;28;20087;-71
2022/03/21 03:47:39;;;;;;;20.73;12.52;;;;;;;;;;5010717;28;20025;-71
2022/03/21 03:50:05;;;;;;;21.88;12.18;;;;;;;;;;5010612;28;20163;-70
2022/03/21 03:52:30;;;;;;;22.10;12.52;;;;;;;;;;5009496;28;20095;-71
2022/03/21 03:54:55;;;;;;;23.75;11.68;;;;;;;;;;5010708;28;20120;-71
2022/03/21 03:57:21;;;;;;;21.13;12.02;;;;;;;;;;5010965;28;20022;-70
2022/03/21 03:59:46;;;;;;;20.92;11.82;;;;;;;;;;5011011;28;20029;-71
2022/03/21 04:02:11;;;;;;;23.10;12.75;;;;;;;;;;5009407;28;20260;-71
2022/03/21 04:04:37;;;;;;;22.50;13.07;;;;;;;;;;5010801;28;20537;-71
2022/03/21 04:07:03;;;;;;;21.23;12.38;;;;;;;;;;5010695;28;20033;-71
2022/03/21 04:09:28;;;;;;;22.23;12.55;;;;;;;;;;5010548;28;20060;-71
2022/03/21 04:11:53;;;;;;;23.25;12.63;;;;;;;;;;5010534;28;20463;-71
2022/03/21 04:14:19;;;;;;;21.95;12.88;;;;;;;;;;5010671;28;20026;-71
2022/03/21 04:16:44;;;;;;;23.85;13.13;;;;;;;;;;5010496;28;20029;-70
2022/03/21 04:19:13;;;;;;;22.52;12.52;;;;;;;;;;5010385;28;20021;-70
2022/03/21 04:21:39;;;;;;;24.75;12.95;;;;;;;;;;5029424;28;20025;-70
2022/03/21 04:24:05;;;;;;;26.52;14.05;;;;;;;;;;5027660;28;20041;-71
2022/03/21 04:26:31;;;;;;;21.48;12.15;;;;;;;;;;5010363;28;20053;-71
2022/03/21 04:28:56;;;;;;;23.63;13.30;;;;;;;;;;5010109;28;20095;-70
2022/03/21 04:31:22;;;;;;;21.52;13.77;;;;;;;;;;5010576;28;20050;-71
2022/03/21 04:33:47;;;;;;;23.52;13.73;;;;;;;;;;5019731;28;20033;-71
2022/03/21 04:36:13;;;;;;;24.67;14.43;;;;;;;;;;5012925;28;20446;-71
2022/03/21 04:38:39;;;;;;;25.63;15.63;;;;;;;;;;5008443;28;20507;-71
2022/03/21 04:41:06;;;;;;;23.25;13.52;;;;;;;;;;5010593;28;20468;-71
2022/03/21 04:43:32;;;;;;;20.13;13.00;;;;;;;;;;5017267;28;20090;-72
2022/03/21 04:45:58;;;;;;;23.13;13.52;;;;;;;;;;5014468;28;20546;-71
2022/03/21 04:48:23;;;;;;;24.95;13.07;;;;;;;;;;5009859;28;20117;-71
2022/03/21 04:50:48;;;;;;;24.90;12.80;;;;;;;;;;5010277;28;20026;-71
2022/03/21 04:53:14;;;;;;;26.30;13.88;;;;;;;;;;5010425;28;20029;-71
2022/03/21 04:55:40;;;;;;;20.15;12.73;;;;;;;;;;5011897;28;20142;-71
2022/03/21 04:58:05;;;;;;;21.25;12.48;;;;;;;;;;5009668;28;20038;-70
2022/03/21 05:00:31;;;;;;;23.65;12.82;;;;;;;;;;5009923;28;20038;-72
2022/03/21 05:02:56;;;;;;;20.95;11.40;;;;;;;;;;5009810;28;20026;-71
2022/03/21 05:05:22;;;;;;;20.10;12.88;;;;;;;;;;5010085;28;20038;-71
2022/03/21 05:07:52;;;;;;;21.83;12.88;;;;;;;;;;5009911;28;20057;-72
2022/03/21 05:10:18;;;;;;;29.75;16.17;;;;;;;;;;5009891;28;20030;-71
2022/03/21 05:12:43;;;;;;;33.67;18.00;;;;;;;;;;5009662;28;20101;-70
2022/03/21 05:15:09;;;;;;;23.65;12.82;;;;;;;;;;5009770;28;20527;-71
2022/03/21 05:17:35;;;;;;;26.27;14.35;;;;;;;;;;5009832;28;20029;-71
2022/03/21 05:20:01;;;;;;;23.42;14.82;;;;;;;;;;5009551;28;20403;-70
2022/03/21 05:22:26;;;;;;;20.67;12.55;;;;;;;;;;5009750;28;20026;-71
2022/03/21 05:30:57;;;;;;;18.75;12.68;;;;;;;;;;5009777;28;20157;-70
2022/03/21 05:35:59;;;;;;;22.60;13.02;;;;;;;;;;5010883;28;20088;-70
2022/03/21 05:38:26;;;;;;;22.02;12.45;;;;;;;;;;5009473;28;20037;-70
2022/03/21 05:40:56;;;;;;;24.17;13.43;;;;;;;;;;5009833;28;20060;-71
2022/03/21 05:43:22;;;;;;;24.27;13.98;;;;;;;;;;5010054;28;20153;-71
2022/03/21 05:45:49;;;;;;;25.08;13.52;;;;;;;;;;5009566;28;20543;-70
2022/03/21 05:50:59;;;;;;;23.48;12.43;;;;;;;;;;5010273;28;20037;-69
2022/03/21 05:53:24;;;;;;;23.92;13.32;;;;;;;;;;5021903;28;20029;-71
2022/03/21 05:55:50;;;;;;;23.60;13.35;;;;;;;;;;5013084;28;20029;-71
2022/03/21 05:58:15;;;;;;;21.40;12.55;;;;;;;;;;5012349;28;20022;-70
2022/03/21 06:00:41;;;;;;;22.77;13.68;;;;;;;;;;5012513;28;20030;-70
2022/03/21 06:03:08;;;;;;;29.20;19.98;;;;;;;;;;5012891;28;20022;-70
2022/03/21 06:05:34;;;;;;;23.58;13.23;;;;;;;;;;5012814;28;20041;-70
2022/03/21 06:07:59;;;;;;;24.15;13.52;;;;;;;;;;5012638;28;20036;-71
2022/03/21 06:10:25;;;;;;;23.83;13.25;;;;;;;;;;5012491;28;20406;-71
2022/03/21 06:12:50;;;;;;;22.05;12.70;;;;;;;;;;5012483;28;20022;-70
2022/03/21 06:15:16;;;;;;;23.20;12.93;;;;;;;;;;5012417;28;20026;-69
2022/03/21 06:17:43;;;;;;;22.88;12.35;;;;;;;;;;5012354;28;20040;-71
2022/03/21 06:20:10;;;;;;;21.63;11.88;;;;;;;;;;5012353;28;20029;-70
2022/03/21 06:22:36;;;;;;;22.23;12.95;;;;;;;;;;5011887;28;20092;-72
2022/03/21 06:25:02;;;;;;;25.98;13.75;;;;;;;;;;5012508;28;20038;-70
2022/03/21 06:27:27;;;;;;;21.67;12.02;;;;;;;;;;5012177;28;20438;-71
2022/03/21 06:29:53;;;;;;;19.98;11.68;;;;;;;;;;5011708;28;20169;-72
2022/03/21 06:32:18;;;;;;;26.85;12.88;;;;;;;;;;5008363;28;20064;-70
2022/03/21 06:34:43;;;;;;;22.27;13.25;;;;;;;;;;5012129;28;20104;-70
2022/03/21 06:37:10;;;;;;;22.70;13.77;;;;;;;;;;5012328;28;20061;-71
2022/03/21 06:39:35;;;;;;;22.70;13.23;;;;;;;;;;5011777;28;20030;-71
2022/03/21 06:42:00;;;;;;;22.73;12.88;;;;;;;;;;5011973;28;20026;-70
2022/03/21 06:44:26;;;;;;;26.02;12.60;;;;;;;;;;5011368;28;20026;-71
2022/03/21 06:46:51;;;;;;;24.40;13.38;;;;;;;;;;5011895;28;20064;-71
2022/03/21 06:49:16;;;;;;;23.63;13.98;;;;;;;;;;5012063;28;20510;-72
2022/03/21 06:51:41;;;;;;;33.28;17.30;;;;;;;;;;5012458;28;20026;-72
2022/03/21 06:54:07;;;;;;;28.10;14.23;;;;;;;;;;5011660;28;20268;-70
2022/03/21 06:56:32;;;;;;;31.67;13.75;;;;;;;;;;5012056;28;20025;-71
2022/03/21 06:58:58;;;;;;;20.52;12.20;;;;;;;;;;5012306;28;20025;-71
2022/03/21 07:01:23;;;;;;;18.88;12.27;;;;;;;;;;5012354;28;20030;-71
2022/03/21 07:03:48;;;;;;;21.83;11.95;;;;;;;;;;5010050;28;20026;-70
2022/03/21 07:06:13;;;;;;;23.17;13.52;;;;;;;;;;5010336;28;20042;-70
2022/03/21 07:08:39;;;;;;;23.27;12.90;;;;;;;;;;5012196;28;20021;-70
2022/03/21 07:11:04;;;;;;;21.38;12.77;;;;;;;;;;5011603;28;20412;-70
2022/03/21 07:13:30;;;;;;;27.35;13.60;;;;;;;;;;5009589;28;20079;-71
2022/03/21 07:15:56;;;;;;;18.40;11.13;;;;;;;;;;5010208;28;20111;-71
2022/03/21 07:18:21;;;;;;;24.40;13.20;;;;;;;;;;5007254;28;20119;-71
2022/03/21 07:20:46;;;;;;;19.35;11.18;;;;;;;;;;5010169;28;20484;-70
2022/03/21 07:23:12;;;;;;;24.08;12.18;;;;;;;;;;5010688;28;20029;-70
2022/03/21 07:25:37;;;;;;;24.20;12.38;;;;;;;;;;5010643;28;20104;-70
2022/03/21 07:28:02;;;;;;;19.52;12.38;;;;;;;;;;5010410;28;20064;-70
2022/03/21 07:30:28;;;;;;;19.40;11.52;;;;;;;;;;5010884;28;20037;-71
2022/03/21 07:32:53;;;;;;;22.75;13.52;;;;;;;;;;5010290;28;20057;-71
2022/03/21 07:35:19;;;;;;;18.75;11.48;;;;;;;;;;5010139;28;20399;-70
2022/03/21 07:37:47;;;;;;;21.70;12.32;;;;;;;;;;5019935;28;20112;-70
2022/03/21 07:40:13;;;;;;;21.40;12.50;;;;;;;;;;5030532;28;20061;-70
2022/03/21 07:42:40;;;;;;;22.88;12.50;;;;;;;;;;5017413;28;20026;-70
2022/03/21 07:47:52;;;;;;;19.15;11.75;;;;;;;;;;5010643;28;20494;-70
2022/03/21 07:50:19;;;;;;;25.95;12.95;;;;;;;;;;5010780;28;20033;-69
2022/03/21 07:52:44;;;;;;;21.92;12.60;;;;;;;;;;5011068;28;20080;-70
2022/03/21 07:55:09;;;;;;;21.02;12.75;;;;;;;;;;5010358;28;20030;-70
2022/03/21 07:57:35;;;;;;;28.40;14.00;;;;;;;;;;5009098;28;20571;-71
2022/03/21 08:00:00;;;;;;;22.60;12.70;;;;;;;;;;5009904;28;20088;-70
2022/03/21 08:02:27;;;;;;;20.35;12.82;;;;;;;;;;5010538;28;20483;-70
2022/03/21 08:04:52;;;;;;;22.95;13.45;;;;;;;;;;5018591;28;20018;-70
2022/03/21 08:07:17;;;;;;;22.88;14.20;;;;;;;;;;5010473;28;20037;-70
2022/03/21 08:09:43;;;;;;;24.17;13.95;;;;;;;;;;5009993;28;20248;-70
2022/03/21 08:12:10;;;;;;;23.13;13.23;;;;;;;;;;5010007;28;20026;-70
2022/03/21 08:14:36;;;;;;;20.70;13.45;;;;;;;;;;4992312;28;20108;-70
2022/03/21 08:17:02;;;;;;;20.40;12.70;;;;;;;;;;5009245;28;20110;-70
2022/03/21 08:19:28;;;;;;;22.63;14.93;;;;;;;;;;5006186;28;20065;-70
2022/03/21 08:21:53;;;;;;;23.52;14.18;;;;;;;;;;5006910;28;20061;-70
2022/03/21 08:24:20;;;;;;;25.45;14.63;;;;;;;;;;5029443;23;20049;-72
2022/03/21 08:26:45;;;;;;;20.13;13.65;;;;;;;;;;5026294;28;20077;-72
2022/03/21 08:29:10;;;;;;;21.42;13.40;;;;;;;;;;5018645;28;20723;-72
2022/03/21 08:31:36;;;;;;;24.80;13.48;;;;;;;;;;5016598;28;20061;-72
2022/03/21 08:34:03;;;;;;;21.52;12.70;;;;;;;;;;5022650;28;20029;-73
2022/03/21 08:36:29;;;;;;;22.55;13.13;;;;;;;;;;5024745;28;20045;-73
2022/03/21 08:38:59;;;;;;;21.45;13.63;;;;;;;;;;5026055;28;20440;-73
2022/03/21 08:41:25;;;;;;;21.85;14.18;;;;;;;;;;5026507;28;20033;-72
2022/03/21 08:43:50;;;;;;;20.00;12.45;;;;;;;;;;5025527;28;20071;-72
2022/03/21 08:46:17;;;;;;;21.17;13.55;;;;;;;;;;5025476;28;20132;-73
2022/03/21 08:51:27;;;;;;;19.90;12.60;;;;;;;;;;5025479;28;20050;-73
2022/03/21 08:53:53;;;;;;;20.92;13.05;;;;;;;;;;5025797;28;20387;-73
2022/03/21 08:56:19;;;;;;;21.27;13.55;;;;;;;;;;5025697;28;20033;-72
2022/03/21 08:58:44;;;;;;;17.73;12.07;;;;;;;;;;5026228;28;20025;-73
2022/03/21 09:01:09;;;;;;;19.73;12.60;;;;;;;;;;5026051;28;20044;-73
2022/03/21 09:03:35;;;;;;;18.75;11.93;;;;;;;;;;5026607;28;20027;-73
2022/03/21 09:06:00;;;;;;;20.42;13.15;;;;;;;;;;5026068;28;20030;-73
2022/03/21 09:08:25;;;;;;;20.45;12.98;;;;;;;;;;5025735;28;20021;-73
2022/03/21 09:10:52;;;;;;;20.80;13.30;;;;;;;;;;5026254;28;20100;-73
2022/03/21 09:13:18;;;;;;;17.70;12.57;;;;;;;;;;5025290;28;20543;-72
2022/03/21 09:15:43;;;;;;;19.48;13.15;;;;;;;;;;5025780;28;20103;-73
2022/03/21 09:18:09;;;;;;;18.73;13.00;;;;;;;;;;5026110;28;20518;-73
2022/03/21 09:20:35;;;;;;;21.10;12.93;;;;;;;;;;5025809;28;20392;-73
2022/03/21 09:23:00;;;;;;;23.30;13.98;;;;;;;;;;5025777;28;20021;-73
2022/03/21 09:25:25;;;;;;;19.17;13.80;;;;;;;;;;5025581;28;20052;-73
2022/03/21 09:27:51;;;;;;;20.80;13.57;;;;;;;;;;5028563;28;20084;-73
2022/03/21 09:30:16;;;;;;;20.48;13.07;;;;;;;;;;5030483;28;20471;-72
2022/03/21 09:32:42;;;;;;;21.33;13.25;;;;;;;;;;5030169;28;20021;-73
2022/03/21 09:35:07;;;;;;;22.98;12.80;;;;;;;;;;5029399;28;20053;-73
2022/03/21 09:37:33;;;;;;;134.80;26.55;;;;;;;;;;5029514;28;20025;-73
2022/03/21 09:39:59;;;;;;;43.88;14.98;;;;;;;;;;5028237;28;20029;-73
2022/03/21 09:42:28;;;;;;;28.90;14.00;;;;;;;;;;5030160;28;20066;-73
2022/03/21 09:44:54;;;;;;;18.27;11.90;;;;;;;;;;5029290;28;20426;-73
2022/03/21 09:50:11;;;;;;;16.85;11.75;;;;;;;;;;5033559;28;20554;-74
2022/03/21 09:52:38;;;;;;;19.35;11.88;;;;;;;;;;5027406;28;20032;-73
2022/03/21 09:55:04;;;;;;;17.08;11.45;;;;;;;;;;5027562;28;20033;-74
2022/03/21 09:57:30;;;;;;;17.35;12.20;;;;;;;;;;5028549;28;20060;-74
2022/03/21 09:59:57;;;;;;;16.35;11.38;;;;;;;;;;5031828;28;20470;-74
2022/03/21 10:02:22;;;;;;;16.00;11.23;;;;;;;;;;5035780;28;20445;-74
2022/03/21 10:04:47;;;;;;;17.55;11.88;;;;;;;;;;5030791;28;20030;-75
2022/03/21 10:07:13;;;;;;;16.20;11.95;;;;;;;;;;5031062;28;20030;-74
2022/03/21 10:09:38;;;;;;;16.48;11.98;;;;;;;;;;5031484;28;20034;-74
2022/03/21 10:12:09;;;;;;;18.42;11.43;;;;;;;;;;5031846;28;20395;-74
2022/03/21 10:14:39;;;;;;;14.43;11.23;;;;;;;;;;5032195;28;20476;-74
2022/03/21 10:17:15;;;;;;;17.63;10.90;;;;;;;;;;5032121;28;20486;-74
2022/03/21 10:19:48;;;;;;;14.80;10.93;;;;;;;;;;5030637;28;20036;-74
2022/03/21 10:22:21;;;;;;;12.93;10.57;;;;;;;;;;5032221;28;20479;-74
2022/03/21 10:24:49;;;;;;;14.55;10.10;;;;;;;;;;5031589;28;20064;-75
2022/03/21 10:27:36;;;;;;;15.18;10.38;;;;;;;;;;5031701;28;20095;-74
2022/03/21 10:30:13;;;;;;;15.23;10.50;;;;;;;;;;5031704;28;20031;-75
2022/03/21 10:32:44;;;;;;;16.38;12.27;;;;;;;;;;5031974;28;20033;-75
2022/03/21 10:35:14;;;;;;;15.00;11.27;;;;;;;;;;5031589;28;20487;-75
2022/03/21 10:37:42;;;;;;;14.50;9.95;;;;;;;;;;5030598;28;20036;-74
2022/03/21 10:40:16;;;;;;;14.73;10.55;;;;;;;;;;5031475;28;20018;-75
2022/03/21 10:42:49;;;;;;;14.18;10.32;;;;;;;;;;5030165;28;20037;-75
2022/03/21 10:45:15;;;;;;;13.90;10.80;;;;;;;;;;5032026;28;20057;-74
2022/03/21 10:47:51;;;;;;;14.40;10.18;;;;;;;;;;5031517;28;20056;-74
2022/03/21 10:50:30;;;;;;;12.68;9.68;;;;;;;;;;5031013;28;20049;-74
2022/03/21 10:53:04;;;;;;;12.77;9.82;;;;;;;;;;5031509;28;20426;-74
2022/03/21 10:55:29;;;;;;;15.23;9.98;;;;;;;;;;5031969;28;20116;-75
2022/03/21 10:57:55;;;;;;;13.10;9.80;;;;;;;;;;5031230;28;20109;-74
2022/03/21 11:00:23;;;;;;;13.95;9.48;;;;;;;;;;5030801;28;20748;-75
2022/03/21 11:03:03;;;;;;;13.70;9.43;;;;;;;;;;5030523;28;20035;-74
2022/03/21 11:05:32;;;;;;;14.68;8.65;;;;;;;;;;5031515;28;20036;-75
2022/03/21 11:07:57;;;;;;;14.18;9.10;;;;;;;;;;5030776;28;20393;-75
2022/03/21 11:10:24;;;;;;;13.05;9.18;;;;;;;;;;5031085;28;20025;-75
2022/03/21 11:12:50;;;;;;;12.15;9.40;;;;;;;;;;5030780;28;20125;-74
2022/03/21 11:15:15;;;;;;;11.02;8.80;;;;;;;;;;5030699;28;20160;-74
2022/03/21 11:17:42;;;;;;;12.73;9.50;;;;;;;;;;5030628;28;20035;-75
2022/03/21 11:20:09;;;;;;;10.32;8.65;;;;;;;;;;5030702;28;20021;-74
2022/03/21 11:22:36;;;;;;;12.48;9.27;;;;;;;;;;5030637;28;20030;-75
2022/03/21 11:25:10;;;;;;;11.88;8.60;;;;;;;;;;5027548;28;20055;-74
2022/03/21 11:28:04;;;;;;;15.73;9.23;;;;;;;;;;5025160;28;20053;-75
2022/03/21 11:31:02;;;;;;;12.35;8.75;;;;;;;;;;5043966;28;20033;-76
2022/03/21 11:33:49;;;;;;;12.88;9.30;;;;;;;;;;5035008;28;20035;-75
2022/03/21 11:36:15;;;;;;;13.75;8.88;;;;;;;;;;5025801;28;20036;-74
2022/03/21 11:38:45;;;;;;;11.27;8.88;;;;;;;;;;5024656;28;20022;-74
2022/03/21 11:41:18;;;;;;;15.07;8.70;;;;;;;;;;5025684;28;20026;-74
2022/03/21 11:44:03;;;;;;;13.05;8.55;;;;;;;;;;5016650;28;20391;-76
2022/03/21 11:46:31;;;;;;;13.10;8.57;;;;;;;;;;5024446;28;20277;-74
2022/03/21 11:49:16;;;;;;;11.52;7.55;;;;;;;;;;5026444;28;20060;-75
2022/03/21 11:51:43;;;;;;;14.27;9.40;;;;;;;;;;5025989;28;20421;-75
2022/03/21 11:54:28;;;;;;;8.98;7.05;;;;;;;;;;5026963;28;20114;-76
2022/03/21 11:56:55;;;;;;;13.95;7.47;;;;;;;;;;5026246;28;20036;-75
2022/03/21 11:59:32;;;;;;;10.25;8.27;;;;;;;;;;5026340;28;20033;-74
2022/03/21 12:02:22;;;;;;;12.27;8.15;;;;;;;;;;5026593;28;20251;-74
2022/03/21 12:04:58;;;;;;;10.00;7.18;;;;;;;;;;5016314;28;20029;-74
2022/03/21 12:07:23;;;;;;;9.73;6.53;;;;;;;;;;5017247;28;20502;-73
2022/03/21 12:09:54;;;;;;;12.60;6.90;;;;;;;;;;5028398;28;20035;-73
2022/03/21 12:12:22;;;;;;;10.00;6.50;;;;;;;;;;5030408;28;20270;-73
2022/03/21 12:15:00;;;;;;;9.07;6.75;;;;;;;;;;5031494;28;20083;-73
2022/03/21 12:17:27;;;;;;;8.95;6.43;;;;;;;;;;5030711;28;20038;-74
2022/03/21 12:19:57;;;;;;;11.05;7.13;;;;;;;;;;5030372;28;20047;-74
2022/03/21 12:22:37;;;;;;;9.45;6.40;;;;;;;;;;5029790;28;20494;-75
2022/03/21 12:25:11;;;;;;;9.40;6.50;;;;;;;;;;5030142;28;20105;-75
2022/03/21 12:27:58;;;;;;;9.43;6.43;;;;;;;;;;5030407;28;20113;-74
2022/03/21 12:30:30;;;;;;;14.15;7.05;;;;;;;;;;5029918;28;20104;-75
2022/03/21 12:33:06;;;;;;;9.45;6.15;;;;;;;;;;5012510;28;20532;-74
2022/03/21 12:35:31;;;;;;;9.68;5.60;;;;;;;;;;5028996;28;20059;-75
2022/03/21 12:38:26;;;;;;;10.43;5.40;;;;;;;;;;5029929;28;20545;-74
2022/03/21 12:40:53;;;;;;;7.65;5.32;;;;;;;;;;5030183;28;20313;-74
2022/03/21 12:43:30;;;;;;;7.57;5.15;;;;;;;;;;5029552;28;20041;-75
2022/03/21 12:46:07;;;;;;;7.15;5.00;;;;;;;;;;5029699;28;20037;-74
2022/03/21 12:48:38;;;;;;;7.90;4.88;;;;;;;;;;5030877;28;20022;-74
2022/03/21 12:51:05;;;;;;;5.07;3.85;;;;;;;;;;5027639;28;20395;-73
2022/03/21 12:53:39;;;;;;;6.32;4.03;;;;;;;;;;5028741;28;20025;-74
2022/03/21 12:56:10;;;;;;;6.70;4.05;;;;;;;;;;5029542;28;20064;-74
2022/03/21 12:58:40;;;;;;;5.45;4.20;;;;;;;;;;5029994;28;20026;-74
2022/03/21 13:01:06;;;;;;;6.15;3.65;;;;;;;;;;5030722;28;20108;-74
2022/03/21 13:03:31;;;;;;;5.45;4.10;;;;;;;;;;5034414;28;20448;-75
2022/03/21 13:11:36;;;;;;;6.03;4.30;;;;;;;;;;5034946;28;20340;-73
2022/03/21 13:14:13;;;;;;;12.43;4.55;;;;;;;;;;5034261;28;20021;-74
2022/03/21 13:16:47;;;;;;;6.38;4.32;;;;;;;;;;5034204;28;20029;-73
2022/03/21 13:19:19;;;;;;;8.05;4.38;;;;;;;;;;5034138;28;20084;-74
2022/03/21 13:21:45;;;;;;;5.25;3.75;;;;;;;;;;5034904;28;20088;-75
2022/03/21 13:24:10;;;;;;;5.07;3.60;;;;;;;;;;5034082;28;20101;-73
2022/03/21 13:26:36;;;;;;;6.15;4.10;;;;;;;;;;5033762;28;20072;-75
2022/03/21 13:29:08;;;;;;;5.70;4.35;;;;;;;;;;5033516;28;20033;-73
2022/03/21 13:31:33;;;;;;;7.53;3.80;;;;;;;;;;5033506;28;20100;-74
2022/03/21 13:34:05;;;;;;;5.15;3.90;;;;;;;;;;5033114;28;20177;-74
2022/03/21 13:36:31;;;;;;;5.00;3.15;;;;;;;;;;5033242;28;20036;-75
2022/03/21 13:39:13;;;;;;;6.75;3.70;;;;;;;;;;5032986;28;20039;-73
2022/03/21 13:41:58;;;;;;;6.20;3.63;;;;;;;;;;5033456;28;20025;-74
2022/03/21 13:44:29;;;;;;;6.05;3.95;;;;;;;;;;5033179;28;20026;-74
2022/03/21 13:47:01;;;;;;;5.80;3.60;;;;;;;;;;5031989;28;20505;-74
2022/03/21 13:49:47;;;;;;;;;;;;;;;;;;5030891;28;20041;-72
2022/03/21 13:52:14;;;;;;;5.88;3.45;;;;;;;;;;5043701;28;19991;-72
2022/03/21 13:54:50;;;;;;;5.72;3.35;;;;;;;;;;5046461;28;20021;-74
2022/03/21 13:57:16;;;;;;;4.85;3.45;;;;;;;;;;5032772;28;20025;-73
2022/03/21 13:59:41;;;;;;;6.15;3.47;;;;;;;;;;5032533;28;20368;-75
2022/03/21 14:02:09;;;;;;;5.40;3.20;;;;;;;;;;5033782;28;20063;-74
2022/03/21 14:04:36;;;;;;;5.70;3.88;;;;;;;;;;5037167;28;20075;-72
2022/03/21 14:07:04;;;;;;;4.90;3.53;;;;;;;;;;5032563;28;20041;-73
2022/03/21 14:09:30;;;;;;;5.40;3.45;;;;;;;;;;5033051;28;20051;-74
2022/03/21 14:12:13;;;;;;;4.78;3.08;;;;;;;;;;5033194;28;20446;-73
2022/03/21 14:14:38;;;;;;;;;;;;;;;;;;5034763;28;20030;-74
2022/03/21 14:17:04;;;;;;;6.35;3.35;;;;;;;;;;5031906;28;19919;-75
2022/03/21 14:19:30;;;;;;;6.95;3.83;;;;;;;;;;5031492;28;20104;-75
2022/03/21 14:21:56;;;;;;;7.93;3.65;;;;;;;;;;5031365;28;20108;-74
2022/03/21 14:24:24;;;;;;;5.15;3.47;;;;;;;;;;5031309;28;20029;-73
2022/03/21 14:26:50;;;;;;;5.70;3.65;;;;;;;;;;5033037;28;20022;-73
2022/03/21 14:29:16;;;;;;;4.65;3.90;;;;;;;;;;5032305;28;20080;-74
2022/03/21 14:31:42;;;;;;;5.03;3.53;;;;;;;;;;5031576;28;20033;-73
2022/03/21 14:34:08;;;;;;;4.90;3.35;;;;;;;;;;5031855;28;20454;-72
2022/03/21 14:36:33;;;;;;;4.53;3.45;;;;;;;;;;5032248;28;20025;-73
2022/03/21 14:38:59;;;;;;;6.00;3.83;;;;;;;;;;5032111;28;20083;-74
2022/03/21 14:41:24;;;;;;;5.35;3.88;;;;;;;;;;5032380;28;20083;-73
2022/03/21 14:43:51;;;;;;;5.80;4.03;;;;;;;;;;5031619;28;20013;-74
2022/03/21 14:46:20;;;;;;;7.93;4.20;;;;;;;;;;5032055;28;20160;-73
2022/03/21 14:48:45;;;;;;;5.28;3.53;;;;;;;;;;5031576;28;20113;-72
2022/03/21 14:51:11;;;;;;;6.72;3.90;;;;;;;;;;5031760;28;20130;-72
2022/03/21 14:53:37;;;;;;;8.25;3.33;;;;;;;;;;5031892;28;20525;-73
2022/03/21 14:56:04;;;;;;;5.57;3.58;;;;;;;;;;5031049;28;20025;-72